createdAt,value
2018-03-15T00:00:53.532Z,66.70
2018-03-15T00:03:29.233Z,66.20
2018-03-15T00:05:58.419Z,66.40
2018-03-15T00:08:27.872Z,67.50
2018-03-15T00:10:57.078Z,68.50
2018-03-15T00:13:27.284Z,70.00
2018-03-15T00:15:56.529Z,69.90
2018-03-15T00:18:25.824Z,71.30
2018-03-15T00:21:02.447Z,72.70
2018-03-15T00:23:32.252Z,73.10
2018-03-15T00:26:01.680Z,73.80
2018-03-15T00:28:45.302Z,73.60
2018-03-15T00:31:15.108Z,73.80
2018-03-15T00:33:44.388Z,74.50
2018-03-15T00:36:13.649Z,74.70
2018-03-15T00:38:43.966Z,75.70
2018-03-15T00:41:14.075Z,75.90
2018-03-15T00:43:45.747Z,75.80
2018-03-15T00:46:16.858Z,76.60
2018-03-15T00:48:47.699Z,76.60
2018-03-15T00:51:18.357Z,76.50
2018-03-15T00:53:47.618Z,77.00
2018-03-15T00:56:17.937Z,77.20
2018-03-15T00:58:48.866Z,77.20
2018-03-15T01:01:18.529Z,77.60
2018-03-15T01:03:55.716Z,77.70
2018-03-15T01:06:55.513Z,77.90
2018-03-15T01:09:27.256Z,78.10
2018-03-15T01:11:57.041Z,78.90
2018-03-15T01:14:26.439Z,79.20
2018-03-15T01:20:17.844Z,79.00
2018-03-15T01:22:47.178Z,78.70
2018-03-15T01:25:17.839Z,79.40
2018-03-15T01:27:47.190Z,79.90
2018-03-15T01:30:16.436Z,79.50
2018-03-15T01:32:46.631Z,80.00
2018-03-15T01:35:17.329Z,80.00
2018-03-15T01:41:07.512Z,80.30
2018-03-15T01:43:36.883Z,80.70
2018-03-15T01:46:06.251Z,80.80
2018-03-15T01:48:35.763Z,80.80
2018-03-15T01:51:05.166Z,81.10
2018-03-15T01:53:34.626Z,81.60
2018-03-15T01:56:04.051Z,82.00
2018-03-15T01:58:33.426Z,82.20
2018-03-15T02:01:02.798Z,82.60
2018-03-15T02:03:32.351Z,82.50
2018-03-15T02:06:01.733Z,82.80
2018-03-15T02:08:31.158Z,83.20
2018-03-15T02:11:00.582Z,83.60
2018-03-15T02:13:29.969Z,84.00
2018-03-15T02:19:21.772Z,84.50
2018-03-15T02:21:51.321Z,84.60
2018-03-15T02:24:20.956Z,84.70
2018-03-15T02:26:54.859Z,85.40
2018-03-15T02:29:24.505Z,86.60
2018-03-15T02:31:54.210Z,87.10
2018-03-15T02:34:23.792Z,88.20
2018-03-15T02:36:53.460Z,89.10
2018-03-15T02:39:23.023Z,89.60
2018-03-15T02:41:56.341Z,90.10
2018-03-15T02:44:27.049Z,90.00
2018-03-15T02:46:57.007Z,90.00
2018-03-15T02:52:48.963Z,89.90
2018-03-15T02:55:18.401Z,90.10
2018-03-15T02:57:47.844Z,90.30
2018-03-15T03:00:17.312Z,90.50
2018-03-15T03:02:47.650Z,90.50
2018-03-15T03:05:17.319Z,90.50
2018-03-15T03:07:47.023Z,90.40
2018-03-15T03:10:16.541Z,90.50
2018-03-15T03:12:47.093Z,90.80
2018-03-15T03:15:18.909Z,91.00
2018-03-15T03:17:48.741Z,91.00
2018-03-15T03:20:19.164Z,91.00
2018-03-15T03:22:48.899Z,91.00
2018-03-15T03:25:18.584Z,91.10
2018-03-15T03:28:36.829Z,91.00
2018-03-15T03:31:06.598Z,91.00
2018-03-15T03:33:36.064Z,90.90
2018-03-15T03:36:05.484Z,91.10
2018-03-15T03:38:41.373Z,91.30
2018-03-15T03:41:11.467Z,91.50
2018-03-15T03:43:41.939Z,91.70
2018-03-15T03:49:33.048Z,91.60
2018-03-15T03:55:23.760Z,91.50
2018-03-15T03:57:53.278Z,91.60
2018-03-15T04:03:54.033Z,91.80
2018-03-15T04:06:23.670Z,91.90
2018-03-15T04:08:53.348Z,92.00
2018-03-15T04:11:23.836Z,91.70
2018-03-15T04:13:53.488Z,91.70
2018-03-15T04:16:23.121Z,91.90
2018-03-15T04:18:52.932Z,91.90
2018-03-15T04:24:43.307Z,91.80
2018-03-15T04:30:33.621Z,92.00
2018-03-15T04:33:03.113Z,91.90
2018-03-15T04:35:32.719Z,92.10
2018-03-15T04:38:03.247Z,92.20
2018-03-15T04:40:32.861Z,92.30
2018-03-15T04:43:03.305Z,92.50
2018-03-15T04:45:34.684Z,92.70
2018-03-15T04:48:41.700Z,92.80
2018-03-15T04:51:11.165Z,92.80
2018-03-15T04:53:40.766Z,92.90
2018-03-15T04:56:10.416Z,93.10
2018-03-15T04:58:40.111Z,93.00
2018-03-15T05:01:09.677Z,93.20
2018-03-15T05:03:40.232Z,93.30
2018-03-15T05:06:09.946Z,93.30
2018-03-15T05:08:39.868Z,93.40
2018-03-15T05:11:09.374Z,93.60
2018-03-15T05:13:39.125Z,93.60
2018-03-15T05:19:29.940Z,93.50
2018-03-15T05:22:01.846Z,93.60
2018-03-15T05:24:34.059Z,93.90
2018-03-15T05:27:03.442Z,94.10
2018-03-15T05:29:33.126Z,94.30
2018-03-15T05:32:02.527Z,94.60
2018-03-15T05:34:32.051Z,94.50
2018-03-15T05:37:02.762Z,94.70
2018-03-15T05:39:32.522Z,94.60
2018-03-15T05:42:01.902Z,94.70
2018-03-15T05:44:31.432Z,94.80
2018-03-15T05:47:01.501Z,94.60
2018-03-15T05:49:31.161Z,94.40
2018-03-15T05:55:21.542Z,94.70
2018-03-15T05:57:51.136Z,94.70
2018-03-15T06:00:20.447Z,94.80
2018-03-15T06:02:51.329Z,94.80
2018-03-15T06:05:21.564Z,94.80
2018-03-15T06:07:51.041Z,94.80
2018-03-15T06:10:20.515Z,94.60
2018-03-15T06:12:50.860Z,94.60
2018-03-15T06:15:20.130Z,94.50
2018-03-15T06:21:10.945Z,94.50
2018-03-15T06:23:40.307Z,94.30
2018-03-15T06:26:09.696Z,94.30
2018-03-15T06:28:39.212Z,94.20
2018-03-15T06:31:08.590Z,94.40
2018-03-15T06:33:37.986Z,94.40
2018-03-15T06:36:07.428Z,94.40
2018-03-15T06:38:36.746Z,94.40
2018-03-15T06:44:31.510Z,94.50
2018-03-15T06:47:01.220Z,94.30
2018-03-15T06:49:30.847Z,94.40
2018-03-15T06:52:00.549Z,94.30
2018-03-15T06:54:30.159Z,94.40
2018-03-15T06:56:59.778Z,94.40
2018-03-15T06:59:29.486Z,94.60
2018-03-15T07:02:00.790Z,94.90
2018-03-15T07:04:30.565Z,94.90
2018-03-15T07:07:00.217Z,94.80
2018-03-15T07:09:29.701Z,94.80
2018-03-15T07:11:59.312Z,94.70
2018-03-15T07:17:51.821Z,94.60
2018-03-15T07:20:21.318Z,94.70
2018-03-15T07:22:50.935Z,94.60
2018-03-15T07:25:46.140Z,94.70
2018-03-15T07:28:15.562Z,94.50
2018-03-15T07:30:45.019Z,94.50
2018-03-15T07:33:14.528Z,94.40
2018-03-15T07:35:44.950Z,94.30
2018-03-15T07:38:14.480Z,94.30
2018-03-15T07:40:44.092Z,94.40
2018-03-15T07:43:13.687Z,94.30
2018-03-15T07:45:43.053Z,94.50
2018-03-15T07:48:12.462Z,94.40
2018-03-15T07:50:41.891Z,94.40
2018-03-15T07:53:11.207Z,94.50
2018-03-15T07:55:40.617Z,94.50
2018-03-15T07:58:09.967Z,94.70
2018-03-15T08:00:39.324Z,94.70
2018-03-15T08:03:08.775Z,94.80
2018-03-15T08:05:38.211Z,94.90
2018-03-15T08:08:07.647Z,94.80
2018-03-15T08:10:36.964Z,94.80
2018-03-15T08:13:06.554Z,95.10
2018-03-15T08:15:35.903Z,94.90
2018-03-15T08:18:05.660Z,94.60
2018-03-15T08:20:35.079Z,94.70
2018-03-15T08:23:05.406Z,94.70
2018-03-15T08:25:34.726Z,94.60
2018-03-15T08:28:04.985Z,94.80
2018-03-15T08:30:34.291Z,94.80
2018-03-15T08:33:03.739Z,94.80
2018-03-15T08:35:33.172Z,94.70
2018-03-15T08:38:02.629Z,94.80
2018-03-15T08:40:31.996Z,94.80
2018-03-15T08:43:01.460Z,94.90
2018-03-15T08:45:31.554Z,94.90
2018-03-15T08:48:01.101Z,94.80
2018-03-15T08:50:30.508Z,94.90
2018-03-15T08:52:59.828Z,94.80
2018-03-15T08:55:29.329Z,94.80
2018-03-15T08:57:59.422Z,94.90
2018-03-15T09:00:29.648Z,94.80
2018-03-15T09:02:59.093Z,94.80
2018-03-15T09:05:28.463Z,95.00
2018-03-15T09:07:58.032Z,95.10
2018-03-15T09:10:27.397Z,95.30
2018-03-15T09:12:56.847Z,95.40
2018-03-15T09:15:26.203Z,95.50
2018-03-15T09:17:55.623Z,95.50
2018-03-15T09:23:46.746Z,95.50
2018-03-15T09:26:16.059Z,95.60
2018-03-15T09:28:45.395Z,95.50
2018-03-15T09:31:14.773Z,95.50
2018-03-15T09:33:44.110Z,95.60
2018-03-15T09:36:13.477Z,95.90
2018-03-15T09:42:04.454Z,96.50
2018-03-15T09:48:05.590Z,97.10
2018-03-15T09:50:34.983Z,97.50
2018-03-15T09:53:04.528Z,97.70
2018-03-15T09:55:34.043Z,97.50
2018-03-15T09:58:03.540Z,97.70
2018-03-15T10:03:54.188Z,98.60
2018-03-15T10:09:44.850Z,98.30
2018-03-15T10:12:15.211Z,98.50
2018-03-15T10:14:44.936Z,98.40
2018-03-15T10:17:14.531Z,98.80
2018-03-15T10:19:44.116Z,99.00
2018-03-15T10:22:13.808Z,99.10
2018-03-15T10:24:43.429Z,99.10
2018-03-15T10:27:48.392Z,99.00
2018-03-15T10:30:17.711Z,99.10
2018-03-15T10:32:47.324Z,99.00
2018-03-15T10:35:35.447Z,99.30
2018-03-15T10:38:04.950Z,99.50
2018-03-15T10:40:34.227Z,99.50
2018-03-15T10:43:03.638Z,99.10
2018-03-15T10:48:54.481Z,99.10
2018-03-15T10:51:24.141Z,99.10
2018-03-15T10:53:53.972Z,99.10
2018-03-15T10:56:23.678Z,99.20
2018-03-15T10:58:53.305Z,99.20
2018-03-15T11:01:23.964Z,99.10
2018-03-15T11:03:53.925Z,99.10
2018-03-15T11:09:44.065Z,98.60
2018-03-15T11:12:13.291Z,98.50
2018-03-15T11:14:42.578Z,98.40
2018-03-15T11:17:11.855Z,98.60
2018-03-15T11:19:41.096Z,98.50
2018-03-15T11:22:10.504Z,98.50
2018-03-15T11:24:39.857Z,98.50
2018-03-15T11:27:09.248Z,98.90
2018-03-15T11:29:38.476Z,98.50
2018-03-15T11:32:07.739Z,98.50
2018-03-15T11:34:37.507Z,98.50
2018-03-15T11:37:07.819Z,98.50
2018-03-15T11:39:37.085Z,98.50
2018-03-15T11:42:06.453Z,98.40
2018-03-15T11:44:39.032Z,98.50
2018-03-15T11:47:11.513Z,98.60
2018-03-15T11:49:40.899Z,98.80
2018-03-15T11:52:11.191Z,98.90
2018-03-15T11:54:41.029Z,98.90
2018-03-15T11:57:50.611Z,98.80
2018-03-15T12:00:20.005Z,98.80
2018-03-15T12:02:50.189Z,98.70
2018-03-15T12:05:19.537Z,98.70
2018-03-15T12:07:49.024Z,98.70
2018-03-15T12:10:18.668Z,98.70
2018-03-15T12:12:48.144Z,98.70
2018-03-15T12:18:39.660Z,98.50
2018-03-15T12:21:09.478Z,98.40
2018-03-15T12:23:39.042Z,98.20
2018-03-15T12:26:08.660Z,98.30
2018-03-15T12:28:39.210Z,98.30
2018-03-15T12:31:09.009Z,98.30
2018-03-15T12:33:39.578Z,98.30
2018-03-15T12:36:09.069Z,98.30
2018-03-15T12:38:38.544Z,98.10
2018-03-15T12:41:08.104Z,97.80
2018-03-15T12:43:37.865Z,97.50
2018-03-15T12:46:08.163Z,97.30
2018-03-15T12:48:37.731Z,97.20
2018-03-15T12:51:33.634Z,97.50
2018-03-15T12:54:03.051Z,97.30
2018-03-15T12:56:33.455Z,97.00
2018-03-15T12:59:02.860Z,97.00
2018-03-15T13:01:32.221Z,96.70
2018-03-15T13:04:01.876Z,96.40
2018-03-15T13:06:31.905Z,96.40
2018-03-15T13:09:03.612Z,96.40
2018-03-15T13:11:32.994Z,96.40
2018-03-15T13:14:02.604Z,96.30
2018-03-15T13:16:32.664Z,96.20
2018-03-15T13:19:01.972Z,95.90
2018-03-15T13:21:31.485Z,95.70
2018-03-15T13:24:01.030Z,95.70
2018-03-15T13:26:30.436Z,94.90
2018-03-15T13:28:59.818Z,93.80
2018-03-15T13:31:30.569Z,92.90
2018-03-15T13:33:59.953Z,92.90
2018-03-15T13:36:29.394Z,91.90
2018-03-15T13:38:58.801Z,91.70
2018-03-15T13:41:28.246Z,91.60
2018-03-15T13:43:57.607Z,91.90
2018-03-15T13:46:27.262Z,92.40
2018-03-15T13:48:56.722Z,92.80
2018-03-15T13:51:26.275Z,93.40
2018-03-15T13:53:55.784Z,92.90
2018-03-15T13:56:25.126Z,92.60
2018-03-15T13:58:54.535Z,91.80
2018-03-15T14:01:24.007Z,91.90
2018-03-15T14:03:53.447Z,92.50
2018-03-15T14:06:24.063Z,92.00
2018-03-15T14:08:53.648Z,92.10
2018-03-15T14:11:23.043Z,92.30
2018-03-15T14:13:53.287Z,92.50
2018-03-15T14:16:22.635Z,92.40
2018-03-15T14:18:52.176Z,92.20
2018-03-15T14:21:21.599Z,92.20
2018-03-15T14:23:51.046Z,91.70
2018-03-15T14:26:20.423Z,91.30
2018-03-15T14:28:50.055Z,90.90
2018-03-15T14:31:19.427Z,90.70
2018-03-15T14:33:49.649Z,90.00
2018-03-15T14:36:23.670Z,90.30
2018-03-15T14:38:53.074Z,90.30
2018-03-15T14:41:23.188Z,87.20
2018-03-15T14:43:53.431Z,83.50
2018-03-15T14:46:22.869Z,84.10
2018-03-15T14:48:52.267Z,79.80
2018-03-15T14:51:25.409Z,76.80
2018-03-15T14:53:55.244Z,76.10
2018-03-15T14:56:24.677Z,74.50
2018-03-15T14:58:54.304Z,73.80
2018-03-15T15:01:23.780Z,71.10
2018-03-15T15:04:16.072Z,67.10
2018-03-15T15:06:46.394Z,64.70
2018-03-15T15:09:15.708Z,64.60
2018-03-15T15:11:45.986Z,65.70
2018-03-15T15:14:15.292Z,65.60
2018-03-15T15:16:44.710Z,66.50
2018-03-15T15:19:14.261Z,65.30
2018-03-15T15:21:43.851Z,66.20
2018-03-15T15:24:14.096Z,72.40
2018-03-15T15:26:43.437Z,72.30
2018-03-15T15:29:12.847Z,74.20
2018-03-15T15:31:42.292Z,76.40
2018-03-15T15:34:11.746Z,76.40
2018-03-15T15:36:43.407Z,77.20
2018-03-15T15:39:12.811Z,75.30
2018-03-15T15:41:42.154Z,75.00
2018-03-15T15:44:11.697Z,76.60
2018-03-15T15:46:41.000Z,74.20
2018-03-15T15:49:10.495Z,74.20
2018-03-15T15:51:39.948Z,73.10
2018-03-15T15:54:09.406Z,73.80
2018-03-15T15:56:38.902Z,75.30
2018-03-15T15:59:09.562Z,73.30
2018-03-15T16:01:41.083Z,73.10
2018-03-15T16:04:10.479Z,73.50
2018-03-15T16:06:39.927Z,74.70
2018-03-15T16:09:09.359Z,75.20
2018-03-15T16:11:38.933Z,72.20
2018-03-15T16:14:08.922Z,70.70
2018-03-15T16:16:38.542Z,73.60
2018-03-15T16:19:08.261Z,70.70
2018-03-15T16:21:38.947Z,70.10
2018-03-15T16:24:09.186Z,70.90
2018-03-15T16:26:38.590Z,70.60
2018-03-15T16:29:07.991Z,69.20
2018-03-15T16:31:37.447Z,68.90
2018-03-15T16:37:14.180Z,61.90
2018-03-15T16:43:15.529Z,60.50
2018-03-15T16:45:44.945Z,59.10
2018-03-15T16:48:14.359Z,59.40
2018-03-15T16:54:04.718Z,62.70
2018-03-15T16:56:34.857Z,63.30
2018-03-15T16:59:04.207Z,62.70
2018-03-15T17:01:35.128Z,58.20
2018-03-15T17:04:05.802Z,58.20
2018-03-15T17:06:36.234Z,56.50
2018-03-15T17:09:06.708Z,55.00
2018-03-15T17:11:36.232Z,54.80
2018-03-15T17:14:05.705Z,53.00
2018-03-15T17:16:35.554Z,53.40
2018-03-15T17:19:05.221Z,53.90
2018-03-15T17:21:35.435Z,55.50
2018-03-15T17:24:05.857Z,55.50
2018-03-15T17:26:35.374Z,56.10
2018-03-15T17:29:05.518Z,58.20
2018-03-15T17:31:35.050Z,58.20
2018-03-15T17:34:04.428Z,58.40
2018-03-15T17:36:33.833Z,58.50
2018-03-15T17:39:04.394Z,57.40
2018-03-15T17:41:33.757Z,57.40
2018-03-15T17:44:03.195Z,56.60
2018-03-15T17:46:32.552Z,55.90
2018-03-15T17:49:02.732Z,55.20
2018-03-15T17:51:32.292Z,55.20
2018-03-15T17:54:01.743Z,56.30
2018-03-15T18:00:02.605Z,55.60
2018-03-15T18:02:31.926Z,53.20
2018-03-15T18:05:01.366Z,52.20
2018-03-15T18:07:31.592Z,51.40
2018-03-15T18:10:01.065Z,51.30
2018-03-15T18:13:13.569Z,52.30
2018-03-15T18:15:42.769Z,53.60
2018-03-15T18:18:12.670Z,54.10
2018-03-15T18:20:42.944Z,53.10
2018-03-15T18:23:12.464Z,53.90
2018-03-15T18:25:42.313Z,52.50
2018-03-15T18:28:11.708Z,52.70
2018-03-15T18:30:40.929Z,51.70
2018-03-15T18:33:12.341Z,51.40
2018-03-15T18:35:41.498Z,51.30
2018-03-15T18:38:10.788Z,49.40
2018-03-15T18:40:40.040Z,48.70
2018-03-15T18:43:09.197Z,46.90
2018-03-15T18:45:38.527Z,46.30
2018-03-15T18:48:07.891Z,47.70
2018-03-15T18:50:37.118Z,49.00
2018-03-15T18:53:06.388Z,49.00
2018-03-15T18:55:36.156Z,49.00
2018-03-15T18:58:05.436Z,49.30
2018-03-15T19:00:34.796Z,48.00
2018-03-15T19:03:04.177Z,48.80
2018-03-15T19:05:33.401Z,49.10
2018-03-15T19:08:07.920Z,48.20
2018-03-15T19:10:37.285Z,47.30
2018-03-15T19:13:09.510Z,48.00
2018-03-15T19:15:38.791Z,47.00
2018-03-15T19:18:08.827Z,46.90
2018-03-15T19:20:38.752Z,46.50
2018-03-15T19:26:04.033Z,45.80
2018-03-15T19:28:37.227Z,46.00
2018-03-15T19:31:09.309Z,46.30
2018-03-15T19:36:32.898Z,45.00
2018-03-15T19:39:04.275Z,44.90
2018-03-15T19:47:17.260Z,46.10
2018-03-15T19:49:53.106Z,45.70
2018-03-15T19:52:25.131Z,45.70
2018-03-15T19:54:59.922Z,43.50
2018-03-15T19:57:34.013Z,44.10
2018-03-15T20:00:17.626Z,43.20
2018-03-15T20:02:52.466Z,43.20
2018-03-15T20:05:25.018Z,42.90
2018-03-15T20:07:55.356Z,43.70
2018-03-15T20:10:29.107Z,43.40
2018-03-15T20:13:02.112Z,44.20
2018-03-15T20:15:40.928Z,45.10
2018-03-15T20:18:13.254Z,45.10
2018-03-15T20:20:42.815Z,43.80
2018-03-15T20:23:22.723Z,43.60
2018-03-15T20:25:52.812Z,44.10
2018-03-15T20:28:30.021Z,44.00
2018-03-15T20:31:00.726Z,44.50
2018-03-15T20:33:36.543Z,44.00
2018-03-15T20:36:08.978Z,44.80
2018-03-15T20:38:38.992Z,44.70
2018-03-15T20:41:15.086Z,45.10
2018-03-15T20:43:45.512Z,46.30
2018-03-15T20:46:20.761Z,46.30
2018-03-15T20:48:57.262Z,45.60
2018-03-15T20:51:26.612Z,45.60
2018-03-15T20:53:58.117Z,46.10
2018-03-15T20:56:28.310Z,46.30
2018-03-15T20:58:57.535Z,46.20
2018-03-15T21:01:27.514Z,46.70
2018-03-15T21:03:58.543Z,46.60
2018-03-15T21:06:27.760Z,47.40
2018-03-15T21:08:56.959Z,47.40
2018-03-15T21:11:26.325Z,47.40
2018-03-15T21:13:57.420Z,46.60
2018-03-15T21:16:27.383Z,47.30
2018-03-15T21:22:55.286Z,47.40
2018-03-15T21:25:24.836Z,46.70
2018-03-15T21:27:54.292Z,46.50
2018-03-15T21:30:23.802Z,47.20
2018-03-15T21:32:53.257Z,47.40
2018-03-15T21:35:22.797Z,46.80
2018-03-15T21:37:53.001Z,48.10
2018-03-15T21:40:22.869Z,48.00
2018-03-15T21:42:52.398Z,49.20
2018-03-15T21:45:26.962Z,48.50
2018-03-15T21:47:56.592Z,48.10
2018-03-15T21:51:14.466Z,48.50
2018-03-15T21:53:43.855Z,48.50
2018-03-15T21:56:13.228Z,47.80
2018-03-15T21:58:43.350Z,49.10
2018-03-15T22:01:12.883Z,50.00
2018-03-15T22:03:43.104Z,50.50
2018-03-15T22:06:13.811Z,50.10
2018-03-15T22:08:43.151Z,50.10
2018-03-15T22:11:13.394Z,49.00
2018-03-15T22:13:42.698Z,49.30
2018-03-15T22:16:12.014Z,50.10
2018-03-15T22:18:41.449Z,51.60
2018-03-15T22:21:10.720Z,51.50
2018-03-15T22:23:40.100Z,51.20
2018-03-15T22:26:09.445Z,52.10
2018-03-15T22:28:38.839Z,52.40
2018-03-15T22:31:08.214Z,53.30
2018-03-15T22:33:37.655Z,53.00
2018-03-15T22:36:07.008Z,52.60
2018-03-15T22:38:36.386Z,52.20
2018-03-15T22:41:06.492Z,51.90
2018-03-15T22:43:35.941Z,51.90
2018-03-15T22:46:05.863Z,53.50
2018-03-15T22:48:35.171Z,53.80
2018-03-15T22:51:05.343Z,55.10
2018-03-15T22:56:56.989Z,55.60
2018-03-15T22:59:26.865Z,55.50
2018-03-15T23:01:56.319Z,56.10
2018-03-15T23:04:25.691Z,56.40
2018-03-15T23:06:55.089Z,56.10
2018-03-15T23:09:24.366Z,56.50
2018-03-15T23:11:53.762Z,58.60
2018-03-15T23:14:23.149Z,58.90
2018-03-15T23:16:52.536Z,60.00
2018-03-15T23:19:21.872Z,60.90
2018-03-15T23:21:51.860Z,59.50
2018-03-15T23:24:21.236Z,60.60
2018-03-15T23:26:50.628Z,62.00
2018-03-15T23:29:20.007Z,63.30
2018-03-15T23:31:49.334Z,63.80
2018-03-15T23:34:18.826Z,64.10
2018-03-15T23:36:48.146Z,63.50
2018-03-15T23:39:17.572Z,62.00
2018-03-15T23:41:47.773Z,64.20
2018-03-15T23:44:17.048Z,63.40
2018-03-15T23:46:49.730Z,63.70
2018-03-15T23:49:19.685Z,64.30
2018-03-15T23:51:52.571Z,64.40
2018-03-15T23:54:21.922Z,65.20
2018-03-15T23:56:51.295Z,66.00
2018-03-15T23:59:20.578Z,66.30
